KDVN/DVN METAR and TAF weather

Enter ICAO airport designator
Station Type Date Time Source
KDVN METAR 2019/08/23 17:52 UTC NOAA

KDVN 231752Z AUTO 07009KT 10SM CLR 25/14 A3021 RMK AO2 SLP223 T02500144 10256 20144 58000


Station Type Date Time Source
KDVN Decoded METAR 2019/08/23 17:52 UTC NOAA

Station name not available
Aug 23, 2019 - 01:52 PM EDT / 2019.08.23 1752 UTC
Wind: from the ENE (070 degrees) at 10 MPH (9 KT):0
Visibility: 10 mile(s):0
Sky conditions: clear
Temperature: 77.0 F (25.0 C)
Dew Point: 57.9 F (14.4 C)
Relative Humidity: 51%
Pressure (altimeter): 30.21 in. Hg (1023 hPa)
Pressure tendency: 0.00 inches (0.0 hPa) lower than three hours ago
ob: KDVN 231752Z AUTO 07009KT 10SM CLR 25/14 A3021 RMK AO2 SLP223 T02500144 10256 20144 58000
cycle: 18

Station Type Date Time Source
KDVN TAF UTC NOAA

Error!

Example: see airport list